createdAt,value
2023-02-11T00:04:40.453Z,0.07
2023-02-11T00:09:42.186Z,0.01
2023-02-11T00:14:43.912Z,-0.12
2023-02-11T00:19:49.811Z,-0.07
2023-02-11T00:24:51.586Z,-1.98
2023-02-11T00:29:53.434Z,-1.25
2023-02-11T00:34:55.476Z,-0.49
2023-02-11T00:39:57.207Z,-1.35
2023-02-11T00:44:58.922Z,-3.33
2023-02-11T00:50:00.996Z,-1.61
2023-02-11T00:55:03.078Z,-2.50
2023-02-11T01:00:06.195Z,-2.50
2023-02-11T01:05:08.458Z,-2.96
2023-02-11T01:10:10.804Z,-1.14
2023-02-11T01:15:17.003Z,-1.36
2023-02-11T01:20:22.837Z,-0.59
2023-02-11T01:25:25.112Z,-0.16
2023-02-11T01:30:26.866Z,0.25
2023-02-11T01:35:28.550Z,0.01
2023-02-11T01:40:31.248Z,0.31
2023-02-11T01:45:46.177Z,-0.27
2023-02-11T01:50:53.066Z,-0.33
2023-02-11T01:56:15.419Z,-0.09
2023-02-11T02:01:21.678Z,0.15
2023-02-11T02:06:30.425Z,-1.74
2023-02-11T02:11:32.566Z,-1.21
2023-02-11T02:16:36.886Z,-0.54
2023-02-11T02:22:00.289Z,-0.41
2023-02-11T02:27:53.122Z,-1.38
2023-02-11T02:33:24.949Z,-0.41
2023-02-11T02:38:48.870Z,-1.92
2023-02-11T02:43:51.811Z,-0.45
2023-02-11T02:48:55.054Z,-1.01
2023-02-11T02:54:21.551Z,-1.22
2023-02-11T03:00:08.174Z,-0.44
2023-02-11T03:05:28.749Z,-1.33
2023-02-11T03:10:36.301Z,-1.79
2023-02-11T03:15:43.144Z,-1.28
2023-02-11T03:20:49.566Z,-1.79
2023-02-11T03:26:09.039Z,-1.48
2023-02-11T03:31:15.138Z,-1.07
2023-02-11T03:36:27.460Z,-0.68
2023-02-11T03:41:31.541Z,-1.22
2023-02-11T03:46:38.050Z,-0.52
2023-02-11T03:51:40.837Z,-0.34
2023-02-11T03:56:53.043Z,-0.43
2023-02-11T04:01:55.030Z,-1.38
2023-02-11T04:06:57.656Z,-0.34
2023-02-11T04:11:59.469Z,-1.43
2023-02-11T04:17:01.369Z,-1.69
2023-02-11T04:22:03.498Z,-0.67
2023-02-11T04:27:05.231Z,-0.75
2023-02-11T04:32:07.477Z,-0.76
2023-02-11T04:37:09.488Z,-2.01
2023-02-11T04:42:11.338Z,-2.49
2023-02-11T04:47:15.289Z,-1.69
2023-02-11T04:52:17.070Z,-1.39
2023-02-11T04:57:18.830Z,-1.53
2023-02-11T05:02:20.622Z,-1.05
2023-02-11T05:07:22.498Z,-0.90
2023-02-11T05:12:24.254Z,-0.94
2023-02-11T05:17:26.096Z,-0.72
2023-02-11T05:22:27.876Z,-0.43
2023-02-11T05:27:29.640Z,-0.81
2023-02-11T05:32:31.637Z,-0.89
2023-02-11T05:37:33.561Z,-1.26
2023-02-11T05:42:35.435Z,-0.97
2023-02-11T05:47:37.264Z,-1.74
2023-02-11T05:52:39.025Z,-3.28
2023-02-11T05:57:41.135Z,-1.91
2023-02-11T06:02:42.956Z,-1.04
2023-02-11T06:07:45.021Z,-1.67
2023-02-11T06:12:46.946Z,-1.34
2023-02-11T06:17:48.758Z,-1.61
2023-02-11T06:22:50.604Z,-1.04
2023-02-11T06:27:52.409Z,-0.77
2023-02-11T06:32:54.930Z,-1.23
2023-02-11T06:37:56.726Z,-1.13
2023-02-11T06:42:58.539Z,-0.81
2023-02-11T06:48:00.322Z,-2.02
2023-02-11T06:53:02.301Z,-2.40
2023-02-11T06:58:04.075Z,-0.88
2023-02-11T07:03:05.833Z,-2.14
2023-02-11T07:08:07.615Z,-1.87
2023-02-11T07:13:09.381Z,-1.20
2023-02-11T07:18:13.053Z,-1.20
2023-02-11T07:23:16.262Z,-2.70
2023-02-11T07:28:18.054Z,-1.16
2023-02-11T07:33:20.078Z,-1.49
2023-02-11T07:38:21.894Z,-1.10
2023-02-11T07:43:23.659Z,-0.88
2023-02-11T07:48:25.468Z,-1.47
2023-02-11T07:53:27.219Z,-0.97
2023-02-11T07:58:29.008Z,-1.84
2023-02-11T08:03:32.278Z,-1.90
2023-02-11T08:08:34.355Z,-2.66
2023-02-11T08:13:36.855Z,-2.84
2023-02-11T08:18:38.560Z,-1.39
2023-02-11T08:23:42.967Z,-1.73
2023-02-11T08:28:46.244Z,-3.04
2023-02-11T08:33:48.389Z,-1.36
2023-02-11T08:38:50.440Z,-0.84
2023-02-11T08:43:52.375Z,-0.72
2023-02-11T08:48:54.234Z,-0.15
2023-02-11T08:53:56.567Z,0.56
2023-02-11T08:58:58.451Z,-0.79
2023-02-11T09:04:01.121Z,-0.57
2023-02-11T09:09:02.987Z,0.47
2023-02-11T09:14:05.199Z,-1.69
2023-02-11T09:19:07.064Z,-1.18
2023-02-11T09:24:08.916Z,-0.15
2023-02-11T09:29:10.936Z,-3.16
2023-02-11T09:34:13.158Z,-4.21
2023-02-11T09:39:17.899Z,-2.43
2023-02-11T09:44:26.770Z,-1.44
2023-02-11T09:49:40.888Z,-1.32
2023-02-11T09:55:01.871Z,-0.64
2023-02-11T10:00:27.142Z,0.54
2023-02-11T10:05:31.787Z,-0.74
2023-02-11T10:10:59.433Z,-3.35
2023-02-11T10:16:19.884Z,-4.83
2023-02-11T10:21:50.517Z,-5.06
2023-02-11T10:26:52.572Z,-3.30
2023-02-11T10:31:57.861Z,-3.02
2023-02-11T10:37:00.388Z,-3.69
2023-02-11T10:42:08.695Z,-3.48
2023-02-11T10:47:21.176Z,-2.46
2023-02-11T10:52:30.483Z,-2.24
2023-02-11T10:57:44.680Z,-2.71
2023-02-11T11:02:54.432Z,-1.69
2023-02-11T11:07:59.560Z,-1.87
2023-02-11T11:13:01.516Z,-1.32
2023-02-11T11:18:21.281Z,-0.07
2023-02-11T11:23:25.058Z,-2.43
2023-02-11T11:28:29.916Z,-1.52
2023-02-11T11:33:35.644Z,-1.94
2023-02-11T11:38:52.335Z,-2.59
2023-02-11T11:43:55.480Z,0.29
2023-02-11T11:49:04.777Z,1.84
2023-02-11T11:54:12.097Z,1.57
2023-02-11T11:59:16.487Z,0.30
2023-02-11T12:04:59.515Z,2.50
2023-02-11T12:10:31.283Z,0.14
2023-02-11T12:15:58.985Z,1.28
2023-02-11T12:21:11.743Z,2.72
2023-02-11T12:26:24.222Z,4.46
2023-02-11T12:31:26.119Z,2.85
2023-02-11T12:36:56.024Z,0.80
2023-02-11T12:42:39.190Z,2.89
2023-02-11T12:47:53.137Z,5.82
2023-02-11T12:53:19.400Z,6.95
2023-02-11T12:58:32.637Z,6.07
2023-02-11T13:04:09.303Z,3.82
2023-02-11T13:09:18.995Z,3.96
2023-02-11T13:14:23.936Z,2.72
2023-02-11T13:19:34.835Z,2.14
2023-02-11T13:24:51.589Z,3.15
2023-02-11T13:30:13.898Z,3.00
2023-02-11T13:35:33.473Z,2.24
2023-02-11T13:40:37.986Z,3.33
2023-02-11T13:45:44.998Z,4.28
2023-02-11T13:50:50.079Z,4.96
2023-02-11T13:56:07.735Z,4.12
2023-02-11T14:01:09.744Z,2.10
2023-02-11T14:06:31.805Z,2.76
2023-02-11T14:11:33.574Z,3.10
2023-02-11T14:16:38.257Z,3.91
2023-02-11T14:21:44.095Z,6.31
2023-02-11T14:27:04.314Z,3.07
2023-02-11T14:32:17.815Z,2.47
2023-02-11T14:37:27.196Z,1.99
2023-02-11T14:42:31.251Z,4.83
2023-02-11T14:47:43.684Z,3.65
2023-02-11T14:52:46.268Z,1.82
2023-02-11T14:57:50.900Z,4.08
2023-02-11T15:02:53.627Z,6.04
2023-02-11T15:07:59.638Z,2.56
2023-02-11T15:13:03.557Z,4.77
2023-02-11T15:18:05.754Z,5.68
2023-02-11T15:23:16.954Z,6.39
2023-02-11T15:28:29.002Z,2.72
2023-02-11T15:33:32.324Z,2.54
2023-02-11T15:38:34.241Z,1.66
2023-02-11T15:43:54.122Z,3.85
2023-02-11T15:48:56.160Z,3.50
2023-02-11T15:54:08.105Z,3.21
2023-02-11T15:59:25.707Z,1.56
2023-02-11T16:04:28.185Z,4.67
2023-02-11T16:09:36.555Z,6.74
2023-02-11T16:14:41.179Z,8.76
2023-02-11T16:19:46.144Z,6.66
2023-02-11T16:24:51.212Z,3.12
2023-02-11T16:29:53.367Z,4.36
2023-02-11T16:34:58.016Z,6.12
2023-02-11T16:39:59.875Z,7.83
2023-02-11T16:45:02.090Z,7.59
2023-02-11T16:50:04.565Z,6.77
2023-02-11T16:55:06.677Z,6.31
2023-02-11T17:00:09.106Z,5.56
2023-02-11T17:05:20.433Z,5.32
2023-02-11T17:10:23.653Z,4.19
2023-02-11T17:15:25.522Z,2.97
2023-02-11T17:20:27.387Z,3.56
2023-02-11T17:25:29.287Z,2.98
2023-02-11T17:30:31.224Z,3.85
2023-02-11T17:35:33.024Z,3.50
2023-02-11T17:40:34.887Z,4.46
2023-02-11T17:45:41.595Z,2.96
2023-02-11T17:50:43.664Z,2.95
2023-02-11T17:55:45.553Z,2.73
2023-02-11T18:00:47.410Z,3.29
2023-02-11T18:05:49.609Z,0.72
2023-02-11T18:10:51.690Z,1.84
2023-02-11T18:15:53.723Z,1.00
2023-02-11T18:21:00.178Z,2.35
2023-02-11T18:26:02.978Z,1.72
2023-02-11T18:31:05.924Z,0.24
2023-02-11T18:36:10.259Z,1.55
2023-02-11T18:41:13.445Z,2.38
2023-02-11T18:46:16.410Z,2.20
2023-02-11T18:51:18.814Z,1.47
2023-02-11T18:56:23.054Z,3.20
2023-02-11T19:01:29.304Z,2.87
2023-02-11T19:06:34.526Z,2.89
2023-02-11T19:11:47.591Z,2.24
2023-02-11T19:16:51.550Z,1.93
2023-02-11T19:21:54.777Z,2.24
2023-02-11T19:26:58.947Z,3.24
2023-02-11T19:32:05.858Z,3.16
2023-02-11T19:37:12.649Z,2.48
2023-02-11T19:42:15.160Z,0.54
2023-02-11T19:47:17.846Z,1.78
2023-02-11T19:52:19.899Z,1.11
2023-02-11T19:57:21.835Z,1.96
2023-02-11T20:02:23.777Z,2.48
2023-02-11T20:07:25.642Z,3.14
2023-02-11T20:12:27.573Z,2.92
2023-02-11T20:17:29.366Z,3.54
2023-02-11T20:22:32.412Z,3.33
2023-02-11T20:27:34.212Z,3.65
2023-02-11T20:32:38.418Z,3.70
2023-02-11T20:37:43.786Z,1.39
2023-02-11T20:42:45.987Z,-0.24
2023-02-11T20:47:47.869Z,0.36
2023-02-11T20:52:49.828Z,0.25
2023-02-11T20:57:51.626Z,0.51
2023-02-11T21:02:53.752Z,2.00
2023-02-11T21:07:55.638Z,2.06
2023-02-11T21:12:57.627Z,2.18
2023-02-11T21:17:59.406Z,2.70
2023-02-11T21:23:01.135Z,-0.06
2023-02-11T21:28:03.052Z,1.12
2023-02-11T21:33:05.960Z,0.87
2023-02-11T21:38:07.819Z,1.10
2023-02-11T21:43:09.559Z,0.20
2023-02-11T21:48:12.224Z,-1.04
2023-02-11T21:53:14.948Z,0.59
2023-02-11T21:58:16.943Z,0.78
2023-02-11T22:03:18.742Z,0.88
2023-02-11T22:08:20.511Z,0.97
2023-02-11T22:13:22.304Z,-0.06
2023-02-11T22:18:24.100Z,1.83
2023-02-11T22:23:25.876Z,2.60
2023-02-11T22:28:27.767Z,0.97
2023-02-11T22:33:29.488Z,1.38
2023-02-11T22:38:32.766Z,1.31
2023-02-11T22:43:34.716Z,0.41
2023-02-11T22:48:36.608Z,-0.19
2023-02-11T22:53:38.623Z,0.16
2023-02-11T22:58:40.518Z,0.79
2023-02-11T23:03:42.712Z,-0.05
2023-02-11T23:08:44.787Z,1.26
2023-02-11T23:13:48.167Z,0.69
2023-02-11T23:18:50.939Z,1.99
2023-02-11T23:23:58.222Z,2.24
2023-02-11T23:29:00.283Z,-0.53
2023-02-11T23:34:02.074Z,0.58
2023-02-11T23:39:04.759Z,0.64
2023-02-11T23:44:06.597Z,0.84
2023-02-11T23:49:08.434Z,0.01
2023-02-11T23:54:14.625Z,0.14
2023-02-11T23:59:17.071Z,-0.61
